Time;durP1;ratioP1;P1;durP2;ratioP2;P2;SDS_P1;SDS_P2;PMS_P1;PMS_P2;Temp;Humidity;BMP_temperature;BMP_pressure;BME280_temperature;BME280_humidity;BME280_pressure;Samples;Min_cycle;Max_cycle;Signal;HPM_P1;HPM_P2
2023/04/08 00:01:27;;;;;;;;;3.00;3.00;;;;;11.31;56.17;101787.53;6277675;22;45370;-67
2023/04/08 00:03:53;;;;;;;;;3.00;3.00;;;;;11.49;56.00;101813.94;6277467;22;45235;-67
2023/04/08 00:06:18;;;;;;;;;5.25;5.25;;;;;11.53;56.32;101817.41;6277894;22;45326;-67
2023/04/08 00:08:44;;;;;;;;;6.00;4.50;;;;;11.58;56.68;101828.03;6277651;22;45272;-67
2023/04/08 00:11:09;;;;;;;;;5.00;4.75;;;;;11.61;56.13;101828.84;6277469;22;45422;-67
2023/04/08 00:13:35;;;;;;;;;5.75;3.75;;;;;11.69;56.37;101836.72;6275922;22;45296;-67
2023/04/08 00:16:00;;;;;;;;;5.50;4.50;;;;;11.65;56.43;101824.31;6274460;22;45513;-67
2023/04/08 00:18:26;;;;;;;;;7.00;6.75;;;;;11.75;56.22;101836.59;6277627;22;45758;-67
2023/04/08 00:20:51;;;;;;;;;8.75;8.25;;;;;11.67;56.57;101830.50;6277337;22;45437;-67
2023/04/08 00:23:17;;;;;;;;;7.25;6.50;;;;;11.33;56.73;101785.72;6277866;22;45268;-67
2023/04/08 00:25:42;;;;;;;;;6.00;6.00;;;;;11.55;56.62;101828.97;6277790;22;45409;-67
2023/04/08 00:28:08;;;;;;;;;6.00;6.00;;;;;11.54;56.80;101831.66;6276820;22;45263;-67
2023/04/08 00:30:33;;;;;;;;;9.00;6.50;;;;;11.57;56.67;101848.53;6277077;22;45326;-67
2023/04/08 00:32:59;;;;;;;;;9.50;5.50;;;;;11.43;56.94;101826.53;6277495;22;45422;-67
2023/04/08 00:35:24;;;;;;;;;4.00;4.00;;;;;11.31;56.70;101819.63;6277666;22;45702;-67
2023/04/08 00:37:50;;;;;;;;;3.75;3.75;;;;;11.32;56.92;101829.38;6277323;22;45299;-67
2023/04/08 00:40:15;;;;;;;;;5.75;5.75;;;;;11.43;57.06;101839.91;6277397;22;45334;-67
2023/04/08 00:42:40;;;;;;;;;6.25;5.50;;;;;11.41;57.16;101850.63;6277508;22;45299;-67
2023/04/08 00:45:06;;;;;;;;;4.75;4.75;;;;;11.23;57.56;101829.56;6277619;22;45470;-67
2023/04/08 00:47:32;;;;;;;;;5.50;5.25;;;;;11.35;57.20;101853.38;6277066;22;45318;-67
2023/04/08 00:49:58;;;;;;;;;6.50;5.00;;;;;11.27;57.36;101842.81;6277086;22;46249;-67
2023/04/08 00:52:23;;;;;;;;;5.50;4.00;;;;;11.01;57.38;101804.97;6250117;22;45499;-67
2023/04/08 00:54:48;;;;;;;;;6.75;5.00;;;;;11.39;57.20;101851.53;6277557;22;45409;-67
2023/04/08 00:57:14;;;;;;;;;5.50;5.50;;;;;11.32;57.35;101846.28;6277105;22;45964;-67
2023/04/08 00:59:40;;;;;;;;;5.75;5.00;;;;;11.37;57.25;101851.56;6277054;22;45920;-67
2023/04/08 01:02:16;;;;;;;;;4.75;4.75;;;;;11.22;57.19;101841.16;6277031;22;45565;-67
2023/04/08 01:04:52;;;;;;;;;5.25;3.50;;;;;10.98;57.41;101799.72;6249738;22;45192;-67
2023/04/08 01:07:17;;;;;;;;;7.25;5.00;;;;;11.31;57.57;101852.56;6248714;22;45437;-67
2023/04/08 01:09:47;;;;;;;;;6.00;6.00;;;;;11.04;57.50;101805.84;6276497;22;45848;-67
2023/04/08 01:12:19;;;;;;;;;5.75;5.50;;;;;11.29;57.37;101849.06;6276218;22;45622;-67
2023/04/08 01:14:47;;;;;;;;;5.25;5.00;;;;;11.27;57.24;101855.31;6277437;22;45426;-67
2023/04/08 01:17:14;;;;;;;;;4.00;4.00;;;;;11.12;57.09;101833.28;6276874;22;45474;-67
2023/04/08 01:19:43;;;;;;;;;8.50;5.25;;;;;11.22;56.65;101846.50;6248507;22;48125;-67
2023/04/08 01:22:25;;;;;;;;;6.00;5.75;;;;;11.22;57.24;101851.84;6276935;22;45234;-66
2023/04/08 01:25:00;;;;;;;;;6.25;3.25;;;;;11.11;57.13;101831.53;6277186;22;45481;-67
2023/04/08 01:27:29;;;;;;;;;5.75;4.25;;;;;11.10;57.15;101839.56;6277097;22;45268;-67
2023/04/08 01:29:55;;;;;;;;;4.25;4.00;;;;;11.12;56.70;101837.75;6277060;22;46112;-67
2023/04/08 01:32:21;;;;;;;;;5.25;4.00;;;;;11.00;56.70;101825.47;6277316;22;45230;-67
2023/04/08 01:34:47;;;;;;;;;3.50;3.25;;;;;10.90;56.80;101816.75;6249013;22;45299;-67
2023/04/08 01:37:15;;;;;;;;;5.00;5.00;;;;;10.75;57.22;101807.19;6249133;22;45587;-67
2023/04/08 01:39:40;;;;;;;;;2.25;2.25;;;;;10.91;57.08;101831.00;6276720;22;45477;-67
2023/04/08 01:42:07;;;;;;;;;4.25;4.00;;;;;10.88;56.88;101842.59;6277161;22;45263;-67
2023/04/08 01:44:34;;;;;;;;;4.00;4.00;;;;;10.83;57.71;101831.09;6270649;22;45189;-67
2023/04/08 01:47:01;;;;;;;;;4.00;2.75;;;;;10.90;57.50;101837.22;6275492;22;45315;-67
2023/04/08 01:49:29;;;;;;;;;5.00;4.50;;;;;10.86;57.43;101836.41;6247857;22;47340;-67
2023/04/08 01:51:57;;;;;;;;;5.00;4.00;;;;;10.81;57.72;101840.03;6277116;22;45252;-67
2023/04/08 01:54:23;;;;;;;;;5.00;5.00;;;;;10.79;57.22;101820.50;6277177;22;45201;-67
2023/04/08 01:56:51;;;;;;;;;3.50;3.50;;;;;10.85;57.01;101836.44;6277089;22;45525;-67
2023/04/08 01:59:20;;;;;;;;;4.00;4.00;;;;;10.78;57.52;101841.00;6278362;22;46094;-67
2023/04/08 02:01:47;;;;;;;;;5.00;5.00;;;;;10.77;57.52;101839.22;6277524;22;45266;-67
2023/04/08 02:04:12;;;;;;;;;4.75;4.00;;;;;10.71;57.56;101837.53;6278322;22;45323;-67
2023/04/08 02:06:38;;;;;;;;;4.00;4.00;;;;;10.69;57.82;101825.09;6278116;22;45348;-67
2023/04/08 02:09:04;;;;;;;;;4.25;4.25;;;;;10.84;58.10;101834.66;6277585;22;45879;-67
2023/04/08 02:11:30;;;;;;;;;5.00;3.00;;;;;10.82;58.04;101836.47;6250704;22;45536;-67
2023/04/08 02:13:57;;;;;;;;;5.25;3.75;;;;;10.65;58.05;101813.59;6250060;22;45411;-67
2023/04/08 02:16:31;;;;;;;;;5.00;4.00;;;;;10.91;57.50;101839.88;6277703;22;45409;-66
2023/04/08 02:19:10;;;;;;;;;4.25;4.25;;;;;10.81;57.64;101826.69;6278082;22;45404;-67
2023/04/08 02:21:43;;;;;;;;;8.00;5.25;;;;;10.75;57.43;101827.69;6277849;22;45205;-67
2023/04/08 02:24:12;;;;;;;;;6.25;3.50;;;;;10.62;57.75;101813.63;6278621;22;45303;-67
2023/04/08 02:26:39;;;;;;;;;5.00;5.00;;;;;10.88;57.91;101845.28;6277782;22;45538;-67
2023/04/08 02:29:06;;;;;;;;;5.50;5.00;;;;;10.72;57.74;101809.03;6249946;22;46269;-67
2023/04/08 02:31:33;;;;;;;;;5.25;4.50;;;;;10.94;57.85;101841.59;6277777;22;45340;-67
2023/04/08 02:33:59;;;;;;;;;9.00;5.00;;;;;10.78;57.70;101816.06;6277745;22;45325;-67
2023/04/08 02:36:25;;;;;;;;;5.50;4.50;;;;;10.92;57.23;101848.78;6250181;22;45268;-67
2023/04/08 02:38:51;;;;;;;;;6.25;5.50;;;;;10.90;57.62;101837.22;6277374;22;45565;-67
2023/04/08 02:41:16;;;;;;;;;11.25;4.75;;;;;10.77;57.32;101819.63;6278073;22;45423;-67
2023/04/08 02:43:42;;;;;;;;;4.50;4.50;;;;;10.67;57.59;101811.75;6277396;22;45368;-67
2023/04/08 02:46:10;;;;;;;;;5.00;3.25;;;;;10.85;57.99;101842.66;6248736;22;45545;-67
2023/04/08 02:48:35;;;;;;;;;6.25;5.50;;;;;10.78;57.67;101830.31;6277549;22;45454;-67
2023/04/08 02:51:00;;;;;;;;;4.50;4.00;;;;;10.78;57.74;101830.31;6277975;22;45323;-67
2023/04/08 02:53:26;;;;;;;;;5.75;5.75;;;;;10.89;57.65;101846.16;6277904;22;45553;-67
2023/04/08 02:55:51;;;;;;;;;5.00;4.00;;;;;10.73;57.39;101811.66;6274188;22;45484;-67
2023/04/08 02:58:17;;;;;;;;;7.75;5.25;;;;;10.83;57.74;101820.44;6277378;22;45906;-67
2023/04/08 03:00:42;;;;;;;;;9.00;7.75;;;;;10.67;57.34;101801.06;6278327;22;45382;-67
2023/04/08 03:03:07;;;;;;;;;9.75;5.00;;;;;10.76;57.46;101813.44;6278403;22;45354;-67
2023/04/08 03:05:33;;;;;;;;;5.75;5.25;;;;;10.96;57.75;101853.19;6278108;22;45504;-67
2023/04/08 03:07:58;;;;;;;;;8.50;7.25;;;;;10.86;57.59;101830.16;6276339;22;46638;-67
2023/04/08 03:10:24;;;;;;;;;6.75;6.75;;;;;10.97;57.80;101854.91;6278251;22;45374;-67
2023/04/08 03:12:49;;;;;;;;;8.50;8.00;;;;;10.89;57.02;101847.06;6249570;22;45279;-67
2023/04/08 03:15:15;;;;;;;;;7.50;7.50;;;;;10.77;57.35;101841.88;6249769;22;45917;-67
2023/04/08 03:17:40;;;;;;;;;5.25;5.25;;;;;10.73;57.04;101853.53;6249881;22;48560;-67
2023/04/08 03:20:06;;;;;;;;;6.25;6.25;;;;;10.60;57.34;101843.94;6277657;22;45237;-67
2023/04/08 03:22:33;;;;;;;;;5.75;5.75;;;;;10.59;57.76;101848.38;6250144;22;45270;-67
2023/04/08 03:24:58;;;;;;;;;9.00;9.00;;;;;10.55;58.03;101850.22;6277567;22;45501;-67
2023/04/08 03:27:24;;;;;;;;;8.00;6.25;;;;;10.43;58.03;101838.84;6277660;22;45292;-67
2023/04/08 03:29:49;;;;;;;;;7.50;7.50;;;;;10.58;57.75;101857.31;6277464;22;45333;-67
2023/04/08 03:32:15;;;;;;;;;8.00;8.00;;;;;10.60;58.38;101854.63;6250193;22;45425;-67
2023/04/08 03:34:40;;;;;;;;;8.75;8.00;;;;;10.54;58.09;101834.22;6278048;22;45243;-67
2023/04/08 03:37:06;;;;;;;;;8.00;8.00;;;;;10.56;57.88;101859.13;6276982;22;45241;-66
2023/04/08 03:39:32;;;;;;;;;7.00;7.00;;;;;10.45;58.26;101843.25;6277637;22;45276;-67
2023/04/08 03:41:59;;;;;;;;;8.25;7.00;;;;;10.28;57.85;101814.09;6250185;22;45342;-67
2023/04/08 03:44:25;;;;;;;;;9.25;8.25;;;;;10.43;57.76;101839.72;6275683;22;45311;-67
2023/04/08 03:46:50;;;;;;;;;6.25;5.50;;;;;10.41;58.34;101849.53;6277694;22;45282;-66
2023/04/08 03:49:16;;;;;;;;;7.00;5.75;;;;;10.12;58.43;101808.09;6276866;22;45237;-66
2023/04/08 03:51:41;;;;;;;;;8.00;7.00;;;;;10.37;58.10;101856.72;6277302;22;45670;-67
2023/04/08 03:54:06;;;;;;;;;8.50;8.50;;;;;10.18;58.15;101823.13;6249983;22;45914;-67
2023/04/08 03:56:32;;;;;;;;;7.00;5.50;;;;;10.19;57.94;101827.59;6277582;22;45895;-67
2023/04/08 03:58:57;;;;;;;;;9.50;8.00;;;;;10.25;58.42;101848.81;6277602;22;45337;-66
2023/04/08 04:01:22;;;;;;;;;2.75;2.00;;;;;10.23;58.46;101831.09;6278221;22;45235;-66
2023/04/08 04:03:48;;;;;;;;;8.00;5.75;;;;;10.27;58.43;101838.13;6277308;22;45265;-67
2023/04/08 04:06:13;;;;;;;;;10.25;8.75;;;;;10.45;58.09;101859.25;6277401;22;45283;-67
2023/04/08 04:08:38;;;;;;;;;9.00;8.25;;;;;10.32;58.35;101845.22;6248874;22;45284;-67
2023/04/08 04:11:04;;;;;;;;;9.50;9.50;;;;;10.18;57.75;101818.66;6277437;22;45261;-66
2023/04/08 04:13:29;;;;;;;;;6.25;4.75;;;;;10.11;57.64;101822.34;6277239;22;45388;-67
2023/04/08 04:15:55;;;;;;;;;8.00;8.00;;;;;10.22;58.03;101848.84;6277326;22;46035;-67
2023/04/08 04:18:20;;;;;;;;;8.75;8.75;;;;;10.27;58.40;101862.16;6276895;22;45312;-66
2023/04/08 04:20:46;;;;;;;;;11.75;10.00;;;;;10.19;58.41;101838.25;6277647;22;45478;-66
2023/04/08 04:23:11;;;;;;;;;10.00;9.00;;;;;10.17;58.20;101837.38;6277587;22;45280;-66
2023/04/08 04:25:40;;;;;;;;;9.00;9.00;;;;;10.26;58.47;101855.06;6277037;22;45324;-67
2023/04/08 04:28:06;;;;;;;;;9.50;9.50;;;;;10.26;58.28;101861.28;6276887;22;45568;-66
2023/04/08 04:30:32;;;;;;;;;14.50;10.00;;;;;10.14;58.64;101840.06;6250110;22;45618;-67
2023/04/08 04:32:57;;;;;;;;;7.25;6.75;;;;;10.00;58.22;101822.47;6276973;22;45330;-66
2023/04/08 04:35:23;;;;;;;;;11.25;9.50;;;;;10.10;57.95;101847.22;6249986;22;47174;-66
2023/04/08 04:37:50;;;;;;;;;7.50;7.50;;;;;10.05;58.44;101851.75;6277353;22;45248;-67
2023/04/08 04:40:16;;;;;;;;;10.75;9.00;;;;;10.12;58.22;101866.81;6277811;22;45307;-67
2023/04/08 04:42:41;;;;;;;;;9.25;6.75;;;;;10.03;58.46;101861.56;6277596;22;45319;-66
2023/04/08 04:45:08;;;;;;;;;11.25;11.25;;;;;9.87;58.38;101844.84;6249632;22;45974;-67
2023/04/08 04:47:33;;;;;;;;;9.25;8.00;;;;;9.89;58.37;101863.50;6276923;22;45248;-67
2023/04/08 04:49:59;;;;;;;;;10.50;8.75;;;;;9.88;59.13;101867.97;6277424;22;45243;-67
2023/04/08 04:52:24;;;;;;;;;9.75;8.25;;;;;9.99;58.91;101883.84;6277642;22;45430;-67
2023/04/08 04:54:50;;;;;;;;;10.50;9.25;;;;;9.75;58.93;101845.00;6248496;22;47908;-67
2023/04/08 04:57:15;;;;;;;;;14.00;12.00;;;;;9.76;58.58;101846.78;6269750;22;45513;-66
2023/04/08 04:59:40;;;;;;;;;10.00;10.00;;;;;10.05;58.73;101894.44;6275596;22;45471;-66
2023/04/08 05:02:06;;;;;;;;;11.25;9.50;;;;;9.99;58.89;101891.84;6276025;22;50002;-66
2023/04/08 05:04:31;;;;;;;;;14.75;9.75;;;;;10.07;58.42;101900.63;6276003;22;45343;-66
2023/04/08 05:06:59;;;;;;;;;11.00;10.00;;;;;9.88;59.18;101864.41;6275233;22;45325;-67
2023/04/08 05:09:24;;;;;;;;;5.00;5.00;;;;;10.10;58.49;101894.38;6274847;22;45423;-66
2023/04/08 05:11:50;;;;;;;;;10.25;10.00;;;;;10.17;58.70;101902.31;6276807;22;45520;-66
2023/04/08 05:14:15;;;;;;;;;9.00;9.00;;;;;10.13;58.62;101902.34;6249462;22;48055;-66
2023/04/08 05:16:41;;;;;;;;;18.75;11.00;;;;;10.10;58.33;101894.38;6276884;22;45541;-67
2023/04/08 05:19:06;;;;;;;;;9.75;9.75;;;;;10.00;58.50;101885.59;6277715;22;45300;-66
2023/04/08 05:21:31;;;;;;;;;11.25;8.75;;;;;9.96;58.33;101875.88;6277220;22;45668;-66
2023/04/08 05:23:57;;;;;;;;;11.50;11.00;;;;;10.12;58.09;101897.91;6275926;22;46216;-66
2023/04/08 05:26:22;;;;;;;;;9.75;9.50;;;;;10.10;58.50;101908.59;6276406;22;45304;-67
2023/04/08 05:28:50;;;;;;;;;12.25;9.50;;;;;10.13;58.16;101916.56;6276837;22;45470;-66
2023/04/08 05:31:15;;;;;;;;;17.00;11.25;;;;;10.05;58.12;101909.56;6277259;22;45221;-66
2023/04/08 05:33:41;;;;;;;;;10.75;10.25;;;;;10.02;58.31;101903.38;6249243;22;47072;-66
2023/04/08 05:36:06;;;;;;;;;12.25;10.50;;;;;10.08;58.40;101917.53;6276096;22;45294;-66
2023/04/08 05:38:32;;;;;;;;;10.25;9.75;;;;;10.11;58.41;101913.03;6276388;22;45330;-66
2023/04/08 05:40:57;;;;;;;;;11.50;10.50;;;;;10.19;58.67;101928.97;6277304;22;45272;-67
2023/04/08 05:43:23;;;;;;;;;15.00;15.00;;;;;10.16;58.38;101919.22;6273989;22;45863;-67
2023/04/08 05:45:48;;;;;;;;;15.25;11.75;;;;;10.23;58.56;101927.16;6277251;22;45389;-66
2023/04/08 05:48:13;;;;;;;;;11.50;10.50;;;;;10.26;58.42;101932.47;6249226;22;45275;-67
2023/04/08 05:50:39;;;;;;;;;12.25;12.25;;;;;10.09;58.59;101911.28;6276556;22;45469;-66
2023/04/08 05:53:04;;;;;;;;;14.50;14.50;;;;;10.11;58.40;101912.19;6274585;22;47129;-66
2023/04/08 05:55:30;;;;;;;;;7.75;3.00;;;;;10.12;58.57;101916.59;6276292;22;45380;-67
2023/04/08 05:57:55;;;;;;;;;14.50;11.75;;;;;10.15;58.29;101924.56;6276653;22;45389;-67
2023/04/08 06:00:21;;;;;;;;;12.50;11.00;;;;;10.09;58.57;101924.63;6276662;22;45481;-67
2023/04/08 06:02:46;;;;;;;;;18.25;15.00;;;;;10.23;58.08;101961.84;6276819;22;45378;-67
2023/04/08 06:05:11;;;;;;;;;14.00;12.50;;;;;10.20;58.26;101960.06;6273814;22;45322;-67
2023/04/08 06:07:37;;;;;;;;;18.00;15.50;;;;;10.18;58.64;101952.09;6273140;22;45278;-67
2023/04/08 06:10:04;;;;;;;;;16.00;12.25;;;;;10.26;58.30;101965.34;6275491;22;45319;-67
2023/04/08 06:12:29;;;;;;;;;14.50;11.75;;;;;10.28;58.55;101950.19;6276399;22;45343;-67
2023/04/08 06:14:55;;;;;;;;;11.50;10.00;;;;;10.12;58.34;101920.16;6248937;22;45264;-67
2023/04/08 06:17:20;;;;;;;;;10.50;10.00;;;;;10.16;58.24;101942.34;6276489;22;45146;-67
2023/04/08 06:19:46;;;;;;;;;19.00;17.00;;;;;10.37;58.58;101959.91;6277200;22;45600;-67
2023/04/08 06:22:11;;;;;;;;;15.25;12.75;;;;;10.40;58.70;101961.66;6276392;22;46431;-67
2023/04/08 06:24:36;;;;;;;;;17.75;16.50;;;;;10.31;58.40;101949.28;6276341;22;45313;-67
2023/04/08 06:27:02;;;;;;;;;15.25;12.75;;;;;10.33;57.79;101961.75;6276112;22;45406;-68
2023/04/08 06:29:28;;;;;;;;;16.00;15.75;;;;;10.20;57.88;101942.28;6276527;22;45637;-65
2023/04/08 06:31:54;;;;;;;;;16.75;16.75;;;;;10.36;58.13;101971.50;6275508;22;46308;-67
2023/04/08 06:34:20;;;;;;;;;16.00;14.75;;;;;10.17;57.85;101937.00;6276769;22;45816;-71
2023/04/08 06:36:45;;;;;;;;;15.75;15.50;;;;;10.18;58.22;101944.09;6249110;22;45434;-70
2023/04/08 06:39:11;;;;;;;;;15.75;14.00;;;;;9.94;58.29;101920.34;6277241;22;45384;-69
2023/04/08 06:41:36;;;;;;;;;19.00;18.00;;;;;10.04;58.04;101943.38;6276684;22;45958;-69
2023/04/08 06:44:19;;;;;;;;;18.25;17.50;;;;;9.81;58.60;101917.81;6275401;22;45322;-69
2023/04/08 06:46:57;;;;;;;;;18.00;17.00;;;;;10.01;58.48;101946.94;6249393;22;45403;-70
2023/04/08 06:49:22;;;;;;;;;18.00;17.50;;;;;10.20;58.33;101989.44;6276834;22;45486;-68
2023/04/08 06:51:48;;;;;;;;;23.75;20.00;;;;;10.08;57.54;101981.56;6276888;22;46010;-67
2023/04/08 06:54:13;;;;;;;;;16.25;15.25;;;;;10.17;57.93;102013.47;6277774;22;45394;-67
2023/04/08 06:56:39;;;;;;;;;19.00;15.50;;;;;10.18;58.22;102004.59;6277909;22;45300;-67
2023/04/08 06:59:32;;;;;;;;;17.00;15.25;;;;;10.25;58.45;102014.28;6276155;22;45247;-70
2023/04/08 07:01:57;;;;;;;;;23.00;20.00;;;;;9.81;58.27;101940.94;6249822;22;45560;-73
2023/04/08 07:08:10;;;;;;;;;;;;;;;;;;;;;
2023/04/08 07:11:16;;;;;;;;;22.50;17.00;;;;;9.99;58.13;101983.44;6208585;22;71638;-67
2023/04/08 07:13:42;;;;;;;;;28.25;22.75;;;;;10.28;58.21;102021.38;6274622;22;45255;-71
2023/04/08 07:16:09;;;;;;;;;23.75;19.50;;;;;10.08;58.52;101990.44;6249874;22;45247;-69
2023/04/08 07:18:35;;;;;;;;;22.75;18.50;;;;;10.25;57.87;102005.41;6249807;22;45734;-72
2023/04/08 07:21:01;;;;;;;;;25.00;23.00;;;;;9.95;57.88;101976.34;6276608;22;45387;-71
2023/04/08 07:23:26;;;;;;;;;20.00;18.75;;;;;9.98;58.31;101986.09;6276781;22;45931;-70
2023/04/08 07:25:52;;;;;;;;;21.00;18.50;;;;;10.16;58.46;102022.41;6276835;22;45353;-70
2023/04/08 07:28:18;;;;;;;;;21.00;18.00;;;;;10.06;58.23;101997.59;6276948;22;45514;-70
2023/04/08 07:30:44;;;;;;;;;25.75;25.25;;;;;10.26;58.27;102026.72;6277412;22;45359;-71
2023/04/08 07:33:09;;;;;;;;;25.00;21.25;;;;;10.22;58.33;102005.44;6277301;22;46040;-70
2023/04/08 07:35:35;;;;;;;;;23.25;19.75;;;;;10.31;58.44;102018.69;6249622;22;45299;-69
2023/04/08 07:38:00;;;;;;;;;23.75;20.75;;;;;10.26;58.50;102017.84;6277245;22;45523;-69
2023/04/08 07:40:25;;;;;;;;;10.25;4.50;;;;;10.34;58.23;102024.91;6277545;22;45201;-72
2023/04/08 07:42:51;;;;;;;;;18.00;16.50;;;;;10.16;58.40;101985.91;6248348;22;47039;-74
2023/04/08 07:45:16;;;;;;;;;20.75;18.00;;;;;10.43;58.33;102025.72;6248352;22;45642;-72
2023/04/08 07:47:42;;;;;;;;;24.00;20.25;;;;;10.13;58.53;101963.72;6276677;22;45255;-71
2023/04/08 07:50:08;;;;;;;;;21.25;20.50;;;;;10.38;58.51;101999.94;6276336;22;45544;-71
2023/04/08 07:52:34;;;;;;;;;24.00;23.00;;;;;10.56;58.68;102022.88;6277588;22;45996;-71
2023/04/08 07:55:00;;;;;;;;;24.00;20.50;;;;;10.66;57.97;102038.75;6249110;22;45435;-70
2023/04/08 07:57:28;;;;;;;;;17.75;17.75;;;;;10.45;58.03;102013.22;6276400;22;45308;-70
2023/04/08 08:00:03;;;;;;;;;27.25;23.50;;;;;10.57;58.04;102021.06;6276770;22;45470;-69
2023/04/08 08:02:35;;;;;;;;;20.50;19.00;;;;;10.34;58.28;101975.94;6275408;22;47443;-70
2023/04/08 08:05:02;;;;;;;;;19.00;16.75;;;;;10.70;58.27;102020.00;6276769;22;45632;-71
2023/04/08 08:07:28;;;;;;;;;25.75;24.00;;;;;10.62;57.76;102005.88;6275561;22;45665;-71
2023/04/08 08:09:53;;;;;;;;;16.25;16.25;;;;;10.71;57.73;102005.78;6270001;22;45336;-71
2023/04/08 08:12:21;;;;;;;;;22.75;20.00;;;;;10.61;58.04;101987.19;6275991;22;46107;-72
2023/04/08 08:14:49;;;;;;;;;18.25;16.75;;;;;10.99;58.16;102029.44;6275799;22;45677;-71
2023/04/08 08:17:15;;;;;;;;;23.75;19.50;;;;;10.91;57.55;102016.19;6273968;22;45347;-73
2023/04/08 08:19:40;;;;;;;;;20.50;18.25;;;;;11.07;57.19;102030.22;6274700;22;45331;-75
2023/04/08 08:22:06;;;;;;;;;22.00;22.00;;;;;11.20;57.62;102044.28;6276848;22;46210;-73
2023/04/08 08:24:31;;;;;;;;;19.50;18.75;;;;;11.26;57.78;102052.25;6276749;22;45526;-68
2023/04/08 08:26:57;;;;;;;;;19.75;18.00;;;;;11.25;56.98;102037.09;6275754;22;51967;-75
2023/04/08 08:29:22;;;;;;;;;18.50;17.75;;;;;11.31;57.20;102057.53;6276795;22;45327;-69
2023/04/08 08:31:48;;;;;;;;;22.25;21.00;;;;;11.26;56.84;102043.31;6277179;22;46218;-69
2023/04/08 08:34:13;;;;;;;;;17.75;17.75;;;;;11.03;57.16;102004.47;6273951;22;45453;-70
2023/04/08 08:36:39;;;;;;;;;20.25;18.00;;;;;11.15;56.85;102021.22;6276583;22;45404;-69
2023/04/08 08:39:04;;;;;;;;;20.25;19.00;;;;;11.24;57.04;102037.13;6248108;22;45457;-69
2023/04/08 08:41:36;;;;;;;;;16.75;15.25;;;;;11.23;56.70;102044.25;6274847;22;47272;-69
2023/04/08 08:44:05;;;;;;;;;27.25;22.75;;;;;11.27;56.75;102054.00;6276566;22;45708;-68
2023/04/08 08:46:31;;;;;;;;;18.00;16.00;;;;;11.25;57.20;102044.25;6275361;22;45328;-71
2023/04/08 08:48:57;;;;;;;;;20.50;19.50;;;;;11.30;57.42;102053.94;6276473;22;45309;-71
2023/04/08 08:51:23;;;;;;;;;22.50;20.75;;;;;11.12;56.98;102017.66;6276782;22;45464;-73
2023/04/08 08:53:48;;;;;;;;;19.50;17.00;;;;;11.32;56.97;102053.94;6277336;22;45244;-71
2023/04/08 08:56:14;;;;;;;;;20.50;18.00;;;;;11.28;56.65;102031.72;6276771;22;45177;-73
2023/04/08 08:58:39;;;;;;;;;19.75;18.25;;;;;11.27;56.58;102027.25;6249039;22;45511;-69
2023/04/08 09:01:34;;;;;;;;;18.50;16.75;;;;;11.46;57.10;102053.72;6276391;22;46112;-69
2023/04/08 09:04:12;;;;;;;;;19.50;17.00;;;;;11.51;56.81;102046.53;6276725;22;45560;-72
2023/04/08 09:06:38;;;;;;;;;15.50;13.25;;;;;11.53;56.81;102050.06;6275569;22;45363;-76
2023/04/08 09:09:08;;;;;;;;;21.00;15.00;;;;;11.23;56.63;101997.94;6275643;22;45512;-76
2023/04/08 09:11:34;;;;;;;;;12.50;11.00;;;;;11.55;56.82;102042.88;6275063;22;46031;-67
2023/04/08 09:13:59;;;;;;;;;21.50;20.25;;;;;11.56;56.41;102044.66;6275254;22;45414;-74
2023/04/08 09:16:25;;;;;;;;;13.00;13.00;;;;;11.66;56.40;102053.41;6276290;22;45327;-73
2023/04/08 09:18:51;;;;;;;;;18.00;15.25;;;;;11.70;56.50;102052.47;6276032;22;45434;-71
2023/04/08 09:21:16;;;;;;;;;18.25;17.75;;;;;11.79;56.67;102052.28;6276046;22;45567;-74
2023/04/08 09:23:46;;;;;;;;;17.75;13.25;;;;;11.72;56.63;102036.41;6276646;22;45258;-74
2023/04/08 09:26:18;;;;;;;;;19.50;16.75;;;;;11.83;56.65;102050.47;6277064;22;45359;-75
2023/04/08 09:28:57;;;;;;;;;20.75;17.75;;;;;11.94;56.28;102053.88;6249110;22;45612;-78
2023/04/08 09:31:26;;;;;;;;;14.50;12.00;;;;;11.98;56.32;102052.91;6277042;22;45430;-78
2023/04/08 09:33:57;;;;;;;;;21.25;16.50;;;;;11.88;56.22;102019.19;6276503;22;45367;-73
2023/04/08 09:36:23;;;;;;;;;15.00;15.00;;;;;12.10;56.43;102046.47;6276629;22;45356;-75
2023/04/08 09:38:48;;;;;;;;;18.50;18.25;;;;;12.17;56.38;102042.75;6276166;22;45500;-67
2023/04/08 09:41:15;;;;;;;;;16.00;14.25;;;;;12.29;56.56;102051.47;6275904;22;46140;-72
2023/04/08 09:43:50;;;;;;;;;15.25;15.25;;;;;12.36;56.10;102058.47;6275281;22;45376;-70
2023/04/08 09:46:17;;;;;;;;;21.25;19.25;;;;;12.37;55.99;102050.41;6276804;22;45264;-70
2023/04/08 09:48:57;;;;;;;;;20.50;18.50;;;;;12.34;55.55;102045.13;6275833;22;45370;-72
2023/04/08 09:51:24;;;;;;;;;18.75;16.75;;;;;12.34;55.25;102050.47;6277190;22;45454;-71
2023/04/08 09:53:58;;;;;;;;;20.25;17.75;;;;;12.36;55.44;102050.44;6276840;22;45916;-72
2023/04/08 09:56:29;;;;;;;;;15.50;15.50;;;;;12.30;55.64;102037.19;6277208;22;45319;-72
2023/04/08 09:58:58;;;;;;;;;16.75;15.25;;;;;12.44;55.49;102045.84;6275337;22;45481;-70
2023/04/08 10:01:34;;;;;;;;;14.75;14.50;;;;;12.50;55.33;102055.56;6276829;22;45488;-70
2023/04/08 10:04:05;;;;;;;;;16.75;14.50;;;;;12.61;55.46;102072.28;6276134;22;45457;-75
2023/04/08 10:06:32;;;;;;;;;16.00;14.75;;;;;12.53;55.26;102050.13;6276337;22;45412;-71
2023/04/08 10:08:58;;;;;;;;;14.50;13.75;;;;;12.60;54.85;102057.16;6277149;22;45248;-71
2023/04/08 10:11:24;;;;;;;;;18.25;16.75;;;;;12.74;55.04;102064.88;6277160;22;46710;-74
2023/04/08 10:13:50;;;;;;;;;16.50;15.50;;;;;12.61;54.90;102048.16;6274484;22;45279;-73
2023/04/08 10:16:23;;;;;;;;;17.00;13.75;;;;;12.79;54.62;102079.06;6277054;22;45312;-71
2023/04/08 10:18:51;;;;;;;;;13.75;13.75;;;;;12.77;54.96;102064.84;6277246;22;45291;-74
2023/04/08 10:21:39;;;;;;;;;13.00;7.50;;;;;12.89;54.32;102069.94;6277614;22;46489;-71
2023/04/08 10:24:11;;;;;;;;;22.25;17.00;;;;;12.93;54.41;102068.97;6245235;22;45651;-74
2023/04/08 10:26:44;;;;;;;;;20.00;17.00;;;;;12.88;54.52;102059.25;6247854;22;45328;-74
2023/04/08 10:29:18;;;;;;;;;16.50;15.50;;;;;13.00;54.13;102071.50;6246794;22;45461;-74
2023/04/08 10:31:45;;;;;;;;;18.25;17.25;;;;;12.95;54.30;102055.53;6276469;22;45325;-70
2023/04/08 10:34:16;;;;;;;;;18.25;17.00;;;;;12.98;54.06;102059.03;6248686;22;45607;-76
2023/04/08 10:36:41;;;;;;;;;14.75;13.75;;;;;12.99;54.19;102046.50;6275169;22;45354;-76
2023/04/08 10:39:07;;;;;;;;;13.75;13.50;;;;;13.02;53.82;102048.25;6276573;22;45273;-76
2023/04/08 10:41:32;;;;;;;;;20.50;16.25;;;;;13.09;53.87;102044.50;6276947;22;45574;-75
2023/04/08 10:43:57;;;;;;;;;18.25;18.00;;;;;13.12;53.72;102044.44;6276297;22;45268;-76
2023/04/08 10:46:26;;;;;;;;;16.00;14.25;;;;;13.09;53.33;102029.28;6275527;22;52147;-75
2023/04/08 10:49:00;;;;;;;;;16.75;15.50;;;;;13.24;53.22;102036.09;6276587;22;45598;-74
2023/04/08 10:51:30;;;;;;;;;12.50;9.50;;;;;13.24;53.16;102025.38;6250325;22;46989;-75
2023/04/08 10:54:04;;;;;;;;;15.50;14.00;;;;;13.23;52.98;102026.31;6278283;22;45205;-75
2023/04/08 10:56:30;;;;;;;;;14.75;14.75;;;;;13.17;53.09;102021.09;6278397;22;45543;-73
2023/04/08 10:58:55;;;;;;;;;15.75;15.75;;;;;13.21;53.14;102014.72;6280962;22;45312;-73
2023/04/08 11:01:21;;;;;;;;;19.00;16.00;;;;;13.30;53.20;102027.06;6278063;22;45457;-75
2023/04/08 11:03:47;;;;;;;;;18.00;14.25;;;;;13.33;53.13;102017.19;6277925;22;45236;-75
2023/04/08 11:06:12;;;;;;;;;15.25;14.25;;;;;13.37;52.92;102009.06;6278299;22;45295;-75
2023/04/08 11:08:37;;;;;;;;;16.75;14.50;;;;;13.45;53.57;102016.00;6277710;22;45224;-75
2023/04/08 11:11:07;;;;;;;;;15.00;15.00;;;;;13.42;52.86;101997.28;6249808;22;61399;-74
2023/04/08 11:13:35;;;;;;;;;13.75;12.25;;;;;13.60;52.82;102003.09;6271287;22;45669;-70
2023/04/08 11:16:03;;;;;;;;;12.50;12.25;;;;;13.53;52.51;101992.56;6273262;22;45386;-70
2023/04/08 11:18:30;;;;;;;;;13.50;13.00;;;;;13.71;52.12;102001.03;6272631;22;45350;-75
2023/04/08 11:20:57;;;;;;;;;16.25;14.25;;;;;13.70;52.06;101985.88;6273100;22;46219;-75